Willamar, Texas
Current Conditions -  °F | °C
As of 10:55 AM on Thursday 25 Dec 2014 (Local Time) from KEBG Reporting Station
Clear Clear  
Wind Chill: 63°   Ceiling: Unl
Heat Index: 63°   Visibility: 10mi
Dew Point: 37°   Wind: 13mph
Humidity: 39%   Direction: 150°SSE
Pressure: 30.14"   Gusts: 17mph
Location:  26.5112°N, 97.8502°W
Report Text: KEBG 251655Z AUTO 15011G15KT 10SM CLR 17/03 A3014 RMK AO2 T01700030
Loading
Personal Weather Stations






























Interactive Weather Map New forecast layout! Learn more

10-Day Weather Forecast

Advertisements
Track Severe Weather on mobile